Main page
METAR-TAF:

METAR-TAF

Airports :

Netaji Subhas Chandra Bose International Airport

Kolkata, India

latitude: 22-39N, longitude: 088-27E, elevation: 4 m

Current weather observation

The report was made 19 minutes ago, at 22:00 UTC
Wind 6 kt from the Southwest
Temperature 28°C
Humidity 89%
Pressure 1006 hPa
Visibility: 3200 m
Few clouds at a height of 2000 ft
haze

METAR: VECC 242200Z 23006KT 3200 HZ FEW020 28/26 Q1006 NOSIG

Time: 03:49 (22:19 UTC)

Forecast

The report was made 2 hours and 19 minutes ago, at 20:00 UTC
Forecast valid from 24 at 21 UTC to 25 at 06 UTC
Wind 6 kt from the South/Southwest
Visibility: 3200 m
Scattered clouds at a height of 2000 ft
Scattered clouds at a height of 10000 ft
haze
Becoming
from 24 at 22 UTC to 24 at 24 UTC
Visibility: 2500 m
mist, haze
Becoming
from 25 at 03 UTC to 25 at 05 UTC
Wind 6 kt from the Southwest
Visibility: 3500 m
haze

TAF: VECC 242000Z 2421/2506 20006KT 3200 HZ SCT020 SCT100 BECMG 2422/2424 2500 BR HZ BECMG 2503/2505 23006KT 3500 HZ

Weather observations and forecasts of more than 4000 airports (METAR and TAF reports).

The available stations are represented by yellow and red dots on the map.

Hover mouse over dot to see the name of the station.

Then click to see weather observations and forecasts.

To change the map : click on the green buttons with a black cross to zoom in, on the green button with a dash to zoom out, or on the green arrows for adjacent maps.


METAR-TAF: